createdAt,value
2018-05-23T00:00:04.130Z,13.34
2018-05-23T00:02:32.386Z,13.28
2018-05-23T00:05:01.421Z,13.24
2018-05-23T00:07:29.778Z,13.16
2018-05-23T00:09:58.811Z,13.09
2018-05-23T00:12:27.066Z,13.00
2018-05-23T00:14:56.104Z,12.90
2018-05-23T00:17:24.443Z,12.86
2018-05-23T00:19:53.467Z,12.75
2018-05-23T00:22:21.741Z,12.63
2018-05-23T00:24:49.986Z,12.53
2018-05-23T00:27:18.251Z,12.61
2018-05-23T00:29:48.011Z,12.72
2018-05-23T00:32:17.224Z,12.68
2018-05-23T00:34:45.500Z,12.58
2018-05-23T00:37:13.771Z,12.24
2018-05-23T00:39:42.051Z,12.03
2018-05-23T00:42:10.323Z,11.87
2018-05-23T00:44:38.603Z,11.79
2018-05-23T00:47:07.619Z,11.71
2018-05-23T00:49:35.883Z,11.68
2018-05-23T00:52:04.170Z,11.55
2018-05-23T00:54:32.435Z,11.49
2018-05-23T00:57:01.462Z,11.41
2018-05-23T00:59:29.718Z,11.35
2018-05-23T01:01:58.827Z,11.29
2018-05-23T01:04:27.895Z,11.26
2018-05-23T01:06:56.940Z,11.29
2018-05-23T01:09:25.204Z,11.44
2018-05-23T01:11:53.471Z,11.56
2018-05-23T01:14:22.495Z,11.44
2018-05-23T01:16:50.759Z,11.48
2018-05-23T01:19:19.784Z,11.27
2018-05-23T01:21:48.035Z,11.31
2018-05-23T01:24:16.304Z,11.31
2018-05-23T01:26:45.314Z,11.04
2018-05-23T01:29:13.585Z,11.21
2018-05-23T01:31:42.700Z,10.97
2018-05-23T01:34:10.960Z,10.95
2018-05-23T01:36:41.220Z,11.03
2018-05-23T01:39:09.483Z,11.07
2018-05-23T01:41:37.734Z,11.09
2018-05-23T01:44:06.782Z,11.21
2018-05-23T01:46:35.167Z,11.40
2018-05-23T01:49:21.439Z,11.25
2018-05-23T01:51:49.732Z,11.57
2018-05-23T01:54:18.003Z,11.55
2018-05-23T01:56:46.259Z,11.45
2018-05-23T01:59:15.290Z,11.42
2018-05-23T02:01:43.714Z,11.40
2018-05-23T02:04:11.976Z,11.65
2018-05-23T02:06:40.233Z,11.48
2018-05-23T02:09:08.498Z,11.41
2018-05-23T02:11:37.555Z,11.30
2018-05-23T02:14:05.827Z,11.27
2018-05-23T02:16:34.100Z,11.18
2018-05-23T02:19:02.366Z,11.10
2018-05-23T02:21:30.647Z,11.13
2018-05-23T02:23:59.207Z,11.23
2018-05-23T02:26:27.463Z,10.92
2018-05-23T02:28:56.489Z,11.30
2018-05-23T02:31:24.763Z,11.17
2018-05-23T02:33:53.787Z,10.83
2018-05-23T02:36:22.051Z,10.65
2018-05-23T02:38:50.310Z,10.69
2018-05-23T02:41:19.349Z,10.53
2018-05-23T02:43:47.608Z,10.63
2018-05-23T02:46:19.663Z,10.78
2018-05-23T02:48:48.697Z,10.92
2018-05-23T02:51:16.946Z,11.01
2018-05-23T02:53:45.202Z,11.09
2018-05-23T02:56:14.237Z,11.10
2018-05-23T02:58:44.667Z,10.98
2018-05-23T03:01:12.923Z,10.79
2018-05-23T03:03:42.038Z,10.66
2018-05-23T03:06:10.308Z,10.50
2018-05-23T03:08:39.337Z,10.37
2018-05-23T03:11:07.598Z,10.26
2018-05-23T03:13:35.874Z,10.21
2018-05-23T03:16:05.207Z,10.21
2018-05-23T03:18:33.480Z,10.18
2018-05-23T03:21:02.359Z,10.27
2018-05-23T03:23:31.455Z,10.29
2018-05-23T03:25:59.710Z,10.32
2018-05-23T03:28:28.749Z,10.31
2018-05-23T03:30:57.013Z,10.28
2018-05-23T03:33:26.031Z,10.25
2018-05-23T03:35:54.290Z,10.22
2018-05-23T03:38:23.324Z,10.38
2018-05-23T03:40:51.598Z,10.31
2018-05-23T03:43:19.869Z,10.26
2018-05-23T03:45:48.125Z,10.38
2018-05-23T03:48:16.399Z,10.56
2018-05-23T03:50:45.591Z,10.53
2018-05-23T03:53:15.052Z,10.64
2018-05-23T03:55:43.304Z,10.72
2018-05-23T03:58:12.336Z,10.85
2018-05-23T04:04:11.491Z,11.13
2018-05-23T04:06:57.782Z,11.40
2018-05-23T04:09:26.808Z,11.45
2018-05-23T04:11:55.130Z,11.42
2018-05-23T04:14:24.561Z,11.54
2018-05-23T04:16:53.675Z,11.69
2018-05-23T04:19:21.931Z,12.20
2018-05-23T04:21:50.947Z,12.09
2018-05-23T04:24:19.218Z,12.10
2018-05-23T04:26:48.237Z,12.17
2018-05-23T04:29:16.504Z,12.22
2018-05-23T04:31:45.539Z,12.21
2018-05-23T04:34:13.814Z,12.24
2018-05-23T04:36:42.063Z,12.24
2018-05-23T04:39:11.215Z,12.29
2018-05-23T04:41:39.451Z,12.40
2018-05-23T04:44:07.699Z,12.38
2018-05-23T04:46:36.624Z,12.44
2018-05-23T04:49:04.927Z,12.60
2018-05-23T04:51:33.198Z,12.71
2018-05-23T04:54:01.460Z,13.03
2018-05-23T04:56:30.486Z,13.46
2018-05-23T04:58:58.746Z,13.96
2018-05-23T05:01:27.020Z,14.61
2018-05-23T05:03:56.036Z,14.96
2018-05-23T05:06:24.300Z,15.09
2018-05-23T05:08:52.559Z,15.19
2018-05-23T05:11:21.597Z,16.31
2018-05-23T05:13:49.932Z,18.53
2018-05-23T05:16:18.887Z,21.14
2018-05-23T05:18:47.147Z,23.85
2018-05-23T05:21:15.411Z,24.05
2018-05-23T05:23:44.460Z,24.96
2018-05-23T05:26:12.795Z,26.25
2018-05-23T05:28:41.834Z,26.91
2018-05-23T05:31:10.080Z,27.84
2018-05-23T05:33:38.347Z,27.88
2018-05-23T05:36:07.380Z,27.50
2018-05-23T05:38:35.635Z,28.67
2018-05-23T05:41:03.910Z,30.04
2018-05-23T05:43:32.925Z,29.68
2018-05-23T05:46:01.195Z,29.88
2018-05-23T05:48:29.456Z,29.87
2018-05-23T05:50:58.488Z,30.14
2018-05-23T05:53:26.744Z,29.32
2018-05-23T05:55:55.768Z,27.87
2018-05-23T05:58:24.016Z,26.64
2018-05-23T06:00:53.048Z,27.35
2018-05-23T06:03:21.299Z,27.20
2018-05-23T06:05:50.330Z,29.26
2018-05-23T06:08:18.593Z,28.76
2018-05-23T06:10:46.842Z,28.26
2018-05-23T06:13:15.115Z,29.64
2018-05-23T06:15:43.388Z,28.91
2018-05-23T06:18:11.724Z,29.90
2018-05-23T06:20:39.988Z,29.86
2018-05-23T06:23:09.092Z,31.11
2018-05-23T06:25:37.381Z,28.79
2018-05-23T06:28:05.648Z,28.50
2018-05-23T06:30:34.675Z,27.63
2018-05-23T06:33:03.784Z,27.33
2018-05-23T06:35:32.055Z,26.66
2018-05-23T06:38:00.329Z,26.08
2018-05-23T06:40:28.581Z,27.70
2018-05-23T06:42:57.606Z,29.52
2018-05-23T06:45:25.881Z,28.78
2018-05-23T06:47:54.151Z,27.92
2018-05-23T06:50:22.407Z,27.91
2018-05-23T06:52:51.440Z,26.48
2018-05-23T06:55:19.699Z,28.06
2018-05-23T06:57:48.732Z,26.98
2018-05-23T07:00:16.995Z,27.06
2018-05-23T07:02:45.336Z,28.62
2018-05-23T07:05:15.594Z,26.50
2018-05-23T07:07:43.890Z,25.27
2018-05-23T07:10:12.154Z,27.69
2018-05-23T07:12:41.207Z,29.82
2018-05-23T07:15:09.539Z,30.74
2018-05-23T07:17:37.819Z,30.79
2018-05-23T07:20:06.834Z,30.61
2018-05-23T07:22:35.087Z,30.26
2018-05-23T07:25:04.115Z,31.85
2018-05-23T07:27:32.386Z,29.24
2018-05-23T07:30:00.646Z,29.61
2018-05-23T07:32:29.751Z,29.90
2018-05-23T07:34:58.778Z,28.56
2018-05-23T07:37:27.874Z,29.36
2018-05-23T07:39:56.131Z,30.59
2018-05-23T07:42:25.248Z,27.74
2018-05-23T07:44:53.503Z,30.11
2018-05-23T07:47:22.527Z,31.74
2018-05-23T07:49:50.796Z,31.49
2018-05-23T07:52:19.084Z,31.37
2018-05-23T07:54:47.335Z,30.19
2018-05-23T07:57:16.367Z,31.28
2018-05-23T07:59:44.613Z,32.02
2018-05-23T08:02:13.644Z,32.79
2018-05-23T08:04:41.920Z,32.39
2018-05-23T08:07:10.192Z,33.12
2018-05-23T08:09:39.491Z,33.19
2018-05-23T08:12:07.754Z,31.96
2018-05-23T08:14:36.789Z,34.64
2018-05-23T08:17:05.055Z,31.00
2018-05-23T08:19:33.327Z,31.55
2018-05-23T08:22:02.435Z,30.43
2018-05-23T08:24:30.751Z,31.33
2018-05-23T08:26:59.745Z,31.81
2018-05-23T08:29:28.095Z,32.47
2018-05-23T08:31:56.349Z,32.51
2018-05-23T08:34:25.389Z,31.72
2018-05-23T08:36:53.647Z,35.34
2018-05-23T08:39:22.674Z,31.48
2018-05-23T08:41:51.131Z,33.59
2018-05-23T08:44:19.406Z,35.35
2018-05-23T08:46:48.424Z,34.62
2018-05-23T08:49:16.691Z,32.73
2018-05-23T08:51:45.716Z,31.73
2018-05-23T08:54:13.989Z,29.42
2018-05-23T08:56:42.251Z,30.89
2018-05-23T08:59:11.356Z,35.01
2018-05-23T09:01:39.609Z,34.00
2018-05-23T09:04:08.645Z,31.77
2018-05-23T09:06:36.895Z,31.06
2018-05-23T09:09:06.749Z,30.95
2018-05-23T09:11:35.007Z,31.25
2018-05-23T09:14:03.278Z,32.55
2018-05-23T09:16:32.313Z,32.37
2018-05-23T09:19:03.057Z,32.69
2018-05-23T09:21:31.433Z,31.54
2018-05-23T09:23:59.700Z,30.47
2018-05-23T09:26:27.951Z,31.74
2018-05-23T09:28:56.979Z,29.52
2018-05-23T09:31:25.235Z,26.70
2018-05-23T09:33:54.267Z,24.33
2018-05-23T09:36:22.528Z,24.74
2018-05-23T09:38:50.787Z,26.51
2018-05-23T09:41:19.799Z,27.37
2018-05-23T09:43:48.087Z,27.36
2018-05-23T09:46:16.356Z,26.71
2018-05-23T09:48:45.394Z,25.51
2018-05-23T09:51:13.656Z,25.68
2018-05-23T09:53:41.924Z,28.97
2018-05-23T09:56:10.202Z,32.41
2018-05-23T09:58:38.479Z,32.19
2018-05-23T10:01:07.504Z,33.99
2018-05-23T10:03:35.758Z,35.79
2018-05-23T10:06:04.046Z,33.58
2018-05-23T10:08:32.319Z,29.36
2018-05-23T10:11:01.332Z,26.59
2018-05-23T10:13:29.632Z,24.88
2018-05-23T10:15:57.883Z,23.55
2018-05-23T10:18:26.134Z,22.87
2018-05-23T10:20:55.171Z,23.07
2018-05-23T10:23:23.414Z,23.16
2018-05-23T10:25:52.468Z,23.25
2018-05-23T10:28:20.724Z,24.37
2018-05-23T10:30:48.998Z,27.64
2018-05-23T10:33:18.132Z,29.50
2018-05-23T10:35:46.389Z,30.88
2018-05-23T10:38:14.645Z,29.42
2018-05-23T10:40:43.672Z,29.33
2018-05-23T10:43:11.936Z,30.04
2018-05-23T10:45:40.963Z,29.93
2018-05-23T10:48:09.228Z,30.57
2018-05-23T10:50:37.487Z,29.52
2018-05-23T10:53:06.603Z,27.67
2018-05-23T10:55:34.872Z,26.06
2018-05-23T10:58:03.891Z,27.20
2018-05-23T11:00:33.819Z,28.11
2018-05-23T11:03:02.131Z,26.99
2018-05-23T11:05:30.365Z,26.61
2018-05-23T11:07:58.628Z,26.81
2018-05-23T11:10:27.739Z,27.66
2018-05-23T11:12:55.995Z,30.25
2018-05-23T11:15:25.029Z,27.75
2018-05-23T11:17:53.278Z,26.24
2018-05-23T11:20:22.303Z,25.49
2018-05-23T11:22:51.528Z,24.02
2018-05-23T11:25:19.923Z,25.44
2018-05-23T11:27:48.189Z,26.17
2018-05-23T11:30:16.442Z,25.96
2018-05-23T11:32:44.694Z,25.28
2018-05-23T11:35:13.737Z,25.23
2018-05-23T11:37:41.987Z,25.74
2018-05-23T11:40:11.139Z,25.35
2018-05-23T11:42:39.398Z,27.35
2018-05-23T11:45:07.673Z,29.15
2018-05-23T11:47:35.939Z,28.63
2018-05-23T11:50:04.239Z,26.14
2018-05-23T11:52:32.501Z,25.99
2018-05-23T11:55:01.532Z,25.40
2018-05-23T11:57:29.788Z,25.84
2018-05-23T11:59:58.055Z,26.39
2018-05-23T12:02:27.084Z,25.79
2018-05-23T12:04:55.347Z,24.97
2018-05-23T12:07:23.608Z,24.93
2018-05-23T12:09:52.639Z,27.11
2018-05-23T12:12:20.895Z,28.33
2018-05-23T12:14:49.936Z,29.64
2018-05-23T12:17:18.191Z,34.07
2018-05-23T12:19:46.607Z,32.81
2018-05-23T12:22:14.739Z,31.29
2018-05-23T12:24:43.007Z,29.96
2018-05-23T12:27:12.033Z,28.17
2018-05-23T12:29:40.296Z,26.49
2018-05-23T12:32:08.546Z,26.15
2018-05-23T12:34:37.571Z,26.27
2018-05-23T12:37:06.496Z,26.11
2018-05-23T12:39:34.761Z,25.77
2018-05-23T12:42:03.030Z,25.33
2018-05-23T12:44:32.046Z,25.01
2018-05-23T12:47:00.321Z,23.81
2018-05-23T12:49:28.566Z,23.71
2018-05-23T12:51:57.610Z,23.85
2018-05-23T12:54:25.864Z,24.07
2018-05-23T12:56:55.205Z,23.71
2018-05-23T12:59:23.456Z,23.88
2018-05-23T13:01:51.745Z,23.68
2018-05-23T13:04:20.015Z,23.87
2018-05-23T13:06:48.283Z,23.61
2018-05-23T13:09:18.963Z,24.05
2018-05-23T13:11:47.231Z,23.81
2018-05-23T13:14:15.490Z,23.60
2018-05-23T13:16:44.511Z,23.22
2018-05-23T13:19:12.766Z,23.16
2018-05-23T13:21:41.038Z,22.95
2018-05-23T13:24:10.067Z,22.73
2018-05-23T13:26:38.341Z,22.75
2018-05-23T13:29:06.605Z,22.84
2018-05-23T13:31:35.632Z,23.27
2018-05-23T13:34:03.886Z,23.38
2018-05-23T13:36:32.182Z,23.69
2018-05-23T13:39:00.478Z,23.52
2018-05-23T13:41:30.698Z,23.23
2018-05-23T13:43:58.959Z,23.39
2018-05-23T13:46:27.971Z,23.13
2018-05-23T13:48:56.226Z,23.01
2018-05-23T13:51:25.271Z,23.21
2018-05-23T13:53:53.526Z,23.40
2018-05-23T13:56:21.792Z,23.13
2018-05-23T13:58:50.047Z,23.37
2018-05-23T14:01:19.088Z,23.75
2018-05-23T14:03:47.339Z,23.90
2018-05-23T14:06:16.376Z,23.64
2018-05-23T14:08:44.739Z,23.27
2018-05-23T14:11:13.011Z,23.75
2018-05-23T14:13:41.304Z,24.31
2018-05-23T14:16:09.566Z,25.26
2018-05-23T14:18:38.584Z,24.06
2018-05-23T14:21:06.853Z,23.40
2018-05-23T14:23:35.109Z,22.91
2018-05-23T14:26:04.136Z,22.98
2018-05-23T14:28:32.426Z,23.49
2018-05-23T14:31:00.666Z,23.24
2018-05-23T14:33:29.701Z,23.00
2018-05-23T14:35:58.655Z,22.62
2018-05-23T14:38:27.691Z,22.28
2018-05-23T14:40:55.944Z,22.38
2018-05-23T14:43:25.044Z,22.36
2018-05-23T14:45:53.334Z,22.16
2018-05-23T14:48:22.451Z,21.93
2018-05-23T14:50:50.701Z,21.83
2018-05-23T14:53:19.735Z,21.84
2018-05-23T14:55:47.982Z,21.72
2018-05-23T14:58:17.328Z,21.54
2018-05-23T15:00:45.575Z,21.33
2018-05-23T15:03:14.687Z,21.17
2018-05-23T15:05:42.955Z,21.04
2018-05-23T15:08:11.959Z,20.90
2018-05-23T15:10:40.230Z,20.68
2018-05-23T15:13:09.319Z,20.46
2018-05-23T15:15:39.080Z,20.39
2018-05-23T15:18:07.454Z,20.45
2018-05-23T15:20:35.714Z,20.55
2018-05-23T15:23:03.984Z,20.45
2018-05-23T15:25:33.015Z,20.75
2018-05-23T15:28:01.275Z,20.98
2018-05-23T15:30:29.581Z,20.96
2018-05-23T15:32:57.841Z,20.91
2018-05-23T15:35:26.171Z,20.81
2018-05-23T15:37:54.431Z,20.61
2018-05-23T15:40:22.681Z,20.46
2018-05-23T15:42:51.707Z,20.30
2018-05-23T15:45:19.976Z,20.11
2018-05-23T15:47:48.232Z,20.19
2018-05-23T15:50:17.259Z,20.21
2018-05-23T15:52:45.518Z,20.26
2018-05-23T15:55:13.770Z,20.05
2018-05-23T15:57:42.812Z,20.13
2018-05-23T16:00:11.668Z,19.81
2018-05-23T16:02:40.700Z,19.57
2018-05-23T16:05:08.963Z,19.47
2018-05-23T16:07:38.069Z,19.47
2018-05-23T16:10:06.361Z,19.58
2018-05-23T16:12:34.603Z,19.20
2018-05-23T16:15:03.656Z,18.98
2018-05-23T16:17:31.924Z,18.83
2018-05-23T16:20:00.198Z,18.77
2018-05-23T16:22:28.459Z,18.80
2018-05-23T16:24:57.584Z,18.71
2018-05-23T16:27:25.840Z,18.73
2018-05-23T16:29:55.397Z,19.01
2018-05-23T16:32:24.772Z,19.00
2018-05-23T16:34:53.045Z,18.88
2018-05-23T16:37:22.088Z,18.75
2018-05-23T16:39:50.340Z,19.03
2018-05-23T16:42:18.606Z,19.12
2018-05-23T16:44:46.883Z,18.96
2018-05-23T16:47:15.999Z,18.89
2018-05-23T16:49:44.271Z,18.64
2018-05-23T16:52:12.601Z,18.99
2018-05-23T16:54:41.650Z,19.13
2018-05-23T16:57:09.902Z,18.68
2018-05-23T16:59:39.075Z,18.72
2018-05-23T17:02:07.332Z,18.44
2018-05-23T17:04:36.098Z,18.39
2018-05-23T17:07:05.135Z,18.14
2018-05-23T17:09:33.415Z,18.25
2018-05-23T17:12:01.672Z,18.48
2018-05-23T17:14:30.043Z,18.44
2018-05-23T17:16:58.333Z,18.30
2018-05-23T17:19:26.617Z,18.15
2018-05-23T17:21:54.885Z,18.21
2018-05-23T17:24:23.157Z,18.10
2018-05-23T17:26:52.189Z,18.00
2018-05-23T17:29:20.467Z,17.77
2018-05-23T17:31:48.739Z,17.81
2018-05-23T17:34:16.994Z,17.88
2018-05-23T17:36:46.028Z,17.88
2018-05-23T17:39:14.283Z,17.80
2018-05-23T17:41:43.306Z,17.85
2018-05-23T17:44:11.987Z,17.67
2018-05-23T17:46:41.583Z,17.70
2018-05-23T17:49:09.835Z,17.52
2018-05-23T17:51:38.871Z,17.53
2018-05-23T17:54:07.141Z,17.60
2018-05-23T17:56:36.350Z,17.30
2018-05-23T17:59:04.599Z,17.46
2018-05-23T18:01:33.639Z,17.44
2018-05-23T18:04:01.891Z,17.44
2018-05-23T18:06:30.977Z,17.35
2018-05-23T18:09:01.667Z,17.05
2018-05-23T18:11:29.914Z,16.85
2018-05-23T18:14:00.272Z,16.67
2018-05-23T18:16:28.544Z,16.59
2018-05-23T18:18:56.807Z,16.61
2018-05-23T18:21:25.078Z,16.67
2018-05-23T18:23:54.100Z,16.50
2018-05-23T18:26:22.368Z,16.47
2018-05-23T18:28:50.625Z,16.30
2018-05-23T18:31:19.663Z,16.18
2018-05-23T18:33:47.914Z,16.06
2018-05-23T18:36:16.931Z,15.89
2018-05-23T18:38:45.473Z,15.81
2018-05-23T18:41:14.964Z,15.82
2018-05-23T18:43:43.224Z,15.78
2018-05-23T18:46:11.488Z,15.67
2018-05-23T18:48:39.748Z,15.56
2018-05-23T18:51:08.772Z,15.51
2018-05-23T18:53:37.031Z,15.52
2018-05-23T18:56:06.058Z,15.54
2018-05-23T18:58:34.318Z,15.58
2018-05-23T19:01:02.571Z,15.59
2018-05-23T19:03:31.605Z,15.64
2018-05-23T19:05:59.887Z,15.64
2018-05-23T19:08:28.139Z,15.55
2018-05-23T19:10:57.166Z,15.66
2018-05-23T19:13:25.427Z,15.68
2018-05-23T19:15:54.470Z,15.64
2018-05-23T19:18:22.730Z,15.67
2018-05-23T19:20:50.990Z,15.73
2018-05-23T19:23:20.820Z,15.80
2018-05-23T19:25:49.083Z,15.88
2018-05-23T19:28:18.102Z,15.86
2018-05-23T19:30:46.380Z,15.96
2018-05-23T19:33:14.652Z,15.87
2018-05-23T19:35:42.899Z,15.81
2018-05-23T19:38:11.927Z,15.69
2018-05-23T19:40:40.204Z,15.55
2018-05-23T19:43:08.473Z,15.51
2018-05-23T19:45:37.737Z,15.41
2018-05-23T19:48:06.078Z,15.09
2018-05-23T19:50:34.330Z,14.91
2018-05-23T19:53:03.452Z,14.78
2018-05-23T19:55:31.953Z,14.70
2018-05-23T19:58:00.214Z,14.83
2018-05-23T20:00:28.475Z,14.78
2018-05-23T20:02:57.492Z,14.83
2018-05-23T20:05:26.526Z,14.90
2018-05-23T20:07:54.792Z,14.76
2018-05-23T20:10:23.051Z,14.67
2018-05-23T20:12:52.084Z,14.74
2018-05-23T20:15:20.334Z,14.73
2018-05-23T20:17:48.590Z,14.47
2018-05-23T20:20:17.621Z,14.36
2018-05-23T20:22:45.886Z,14.24
2018-05-23T20:25:14.915Z,14.20
2018-05-23T20:27:43.502Z,14.23
2018-05-23T20:30:11.771Z,14.19
2018-05-23T20:32:40.032Z,14.16
2018-05-23T20:35:09.049Z,14.16
2018-05-23T20:37:37.315Z,14.16
2018-05-23T20:40:05.575Z,14.20
2018-05-23T20:42:34.699Z,14.18
2018-05-23T20:45:02.972Z,14.14
2018-05-23T20:47:32.001Z,14.10
2018-05-23T20:50:00.251Z,14.15
2018-05-23T20:52:29.279Z,14.35
2018-05-23T20:54:57.535Z,14.31
2018-05-23T20:57:26.569Z,14.33
2018-05-23T20:59:55.136Z,14.06
2018-05-23T21:02:23.401Z,14.01
2018-05-23T21:04:51.658Z,14.03
2018-05-23T21:07:20.696Z,14.08
2018-05-23T21:09:49.030Z,14.11
2018-05-23T21:12:18.072Z,14.13
2018-05-23T21:14:46.354Z,14.22
2018-05-23T21:17:14.636Z,14.25
2018-05-23T21:19:42.887Z,14.26
2018-05-23T21:22:11.923Z,14.25
2018-05-23T21:24:40.192Z,14.24
2018-05-23T21:27:08.458Z,14.21
2018-05-23T21:29:36.723Z,14.22
2018-05-23T21:32:06.992Z,14.19
2018-05-23T21:34:35.310Z,14.12
2018-05-23T21:37:03.515Z,14.08
2018-05-23T21:39:32.548Z,14.02
2018-05-23T21:42:00.821Z,13.98
2018-05-23T21:44:29.081Z,13.89
2018-05-23T21:46:57.356Z,13.85
2018-05-23T21:49:26.471Z,13.82
2018-05-23T21:51:54.730Z,13.79
2018-05-23T21:54:23.763Z,13.77
2018-05-23T21:56:52.035Z,13.74
2018-05-23T21:59:20.328Z,13.74
2018-05-23T22:01:48.592Z,13.71
2018-05-23T22:04:16.862Z,13.75
2018-05-23T22:06:45.883Z,13.73
2018-05-23T22:09:14.138Z,13.71
2018-05-23T22:11:42.403Z,13.68
2018-05-23T22:14:11.436Z,13.66
2018-05-23T22:16:39.694Z,13.63
2018-05-23T22:19:08.728Z,13.63
2018-05-23T22:21:36.974Z,13.56
2018-05-23T22:24:06.013Z,13.88
2018-05-23T22:26:34.372Z,13.79
2018-05-23T22:29:02.638Z,13.74
2018-05-23T22:31:31.664Z,13.61
2018-05-23T22:33:59.908Z,13.77
2018-05-23T22:36:30.179Z,13.46
2018-05-23T22:38:58.447Z,13.40
2018-05-23T22:41:26.702Z,13.38
2018-05-23T22:43:55.744Z,13.34
2018-05-23T22:46:23.996Z,13.32
2018-05-23T22:48:52.272Z,13.31
2018-05-23T22:51:20.522Z,13.26
2018-05-23T22:53:49.546Z,13.41
2018-05-23T22:56:17.799Z,13.60
2018-05-23T22:58:47.580Z,13.48
2018-05-23T23:01:15.931Z,13.26
2018-05-23T23:03:44.200Z,13.15
2018-05-23T23:06:13.226Z,13.11
2018-05-23T23:08:43.058Z,13.11
2018-05-23T23:11:11.311Z,13.17
2018-05-23T23:13:39.588Z,13.57
2018-05-23T23:16:08.426Z,13.50
2018-05-23T23:18:36.755Z,13.61
2018-05-23T23:21:05.025Z,13.35
2018-05-23T23:23:34.053Z,13.09
2018-05-23T23:26:02.323Z,12.93
2018-05-23T23:28:30.581Z,12.83
2018-05-23T23:30:59.610Z,12.67
2018-05-23T23:33:27.881Z,12.52
2018-05-23T23:35:56.151Z,12.45
2018-05-23T23:38:24.422Z,12.41
2018-05-23T23:40:53.547Z,12.45
2018-05-23T23:43:21.810Z,12.36
2018-05-23T23:45:50.081Z,12.42
2018-05-23T23:48:19.927Z,12.29
2018-05-23T23:50:48.186Z,12.20
2018-05-23T23:53:17.215Z,12.16
2018-05-23T23:55:45.495Z,12.11
2018-05-23T23:58:13.752Z,12.08
